Portada
METAR-TAF:

METAR-TAF

Aeropuertos :

Lanzarote, España

Aeropuerto de Lanzarote

latitud: 28-57N, longitud: 013-36W, altitud: 14 m

Observación

El informe se hizo hace 17 minutos, a las 06:00 UTC
Viento 8 kt del norte-noreste
Temperatura 17°C
Humedad 63%
Presión 1025 hPa
Visibilidad 10 km o más
Escasas nubes a una altura de 4000 ft
Cielo nuboso a una altura de 4500 ft

METAR: GCRR 190600Z 03008KT 9999 FEW040 BKN045 17/10 Q1025

Hora: 06:17 (06:17 UTC)

Pronóstico

El informe se hizo hace 4 horas y 17 minutos, a las 02:00 UTC
Pronóstico válido del 19 a las 03 UTC al 20 a las 03 UTC
Viento 11 kt del norte
Visibilidad 10 km o más
Nubes dispersas a una altura de 3500 ft
Probabilidad 40%
del 19 a las 09 UTC al 19 a las 17 UTC
Viento 15 kt del norte con ráfagas de 25 kt

TAF: GCRR 190200Z 1903/2003 01011KT 9999 SCT035 TX21/1914Z TN13/1906Z PROB40 1909/1917 01015G25KT

Observaciones y pronósticos meteorológicos de más de 4000 aeropuertos (mensajes METAR y TAF).

Los puntos amarillos y rojos representan las estaciones disponibles.

Ponga el ratón en el punto deseado para ver el nombre de la estación.

Haga clic para ver las observaciones y los pronósticos meteorológicos.

Para cambiar el mapa : haga clic en los botones verdes con una cruz de color negro para hacer un zoom, en el botón verde con un guión para alejar o en las flechas verdes para mapas adyacentes.


METAR-TAF: